This is the latest recevied weather packets stored in our database for station/object KE4ODN. If no packets are shown the sender has not sent any weather packets the latest 10 day(s).
| Time | Temp. | Humidity | Pressure | Rain* | Wind** | Luminosity | Snow |
|---|---|---|---|---|---|---|---|
| 1777994404 | 21.11° C | 68% | 1014.8 hPa | 0 mm | - | 717 W/m² | - |
| 1777994164 | 21.67° C | 67% | 1014.7 hPa | 0 mm | - | 633 W/m² | - |
| 1777993204 | 20.56° C | 67% | 1014.8 hPa | 0 mm | - | 606 W/m² | - |
| 1777992745 | 20.56° C | 71% | 1014.8 hPa | 0 mm | - | 622 W/m² | - |
| 1777992004 | 19.44° C | 71% | 1014.9 hPa | 0 mm | - | 598 W/m² | - |
| 1777991524 | 19.44° C | 75% | 1014.7 hPa | 0 mm | - | 135 W/m² | - |
| 1777989364 | 17.22° C | 80% | 1014.9 hPa | 0 mm | - | 72 W/m² | - |
| 1777988884 | 16.67° C | 83% | 1014.7 hPa | 0 mm | - | 137 W/m² | - |
| 1777984564 | 12.22° C | 91% | 1013.7 hPa | 0 mm | - | 67 W/m² | - |
| 1777984324 | 12.22° C | 92% | 1013.8 hPa | 0 mm | - | 35 W/m² | - |
| 1777983844 | 11.67° C | 92% | 1013.6 hPa | 0 mm | - | 30 W/m² | - |
| 1777983364 | 11.11° C | 93% | 1013.5 hPa | 0 mm | - | 32 W/m² | - |
| 1777982905 | 10.56° C | 93% | 1013.6 hPa | 0 mm | - | 28 W/m² | - |
| 1777981684 | 10° C | 93% | 1013.2 hPa | 0 mm | - | 16 W/m² | - |
| 1777979524 | 10° C | 93% | 1013.1 hPa | 0 mm | - | 0 W/m² | - |
| 1777978084 | 10° C | 92% | 1013.1 hPa | 0 mm | - | 0 W/m² | - |
| 1777977604 | 10° C | 92% | 1013 hPa | 0 mm | - | 0 W/m² | - |
| 1777976665 | 10° C | 93% | 1012.8 hPa | 0 mm | - | 0 W/m² | - |
| 1777976164 | 10.56° C | 92% | 1012.7 hPa | 0 mm | - | 0 W/m² | - |
| 1777974265 | 10.56° C | 93% | 1012.8 hPa | 0 mm | - | 0 W/m² | - |
| 1777973524 | 10.56° C | 92% | 1013.3 hPa | 0 mm | - | 0 W/m² | - |
| 1777971364 | 11.11° C | 92% | 1013.1 hPa | 0 mm | - | 0 W/m² | - |
| 1777970404 | 11.11° C | 92% | 1013.2 hPa | 0 mm | - | 0 W/m² | - |
| 1777970164 | 11.11° C | 92% | 1013.2 hPa | 0 mm | - | 0 W/m² | - |
| 1777968244 | 11.67° C | 92% | 1013.3 hPa | 0 mm | - | 0 W/m² | - |
* Rain latest hour (hover to see other rain measurements)
** Current wind speed in m/s (hover to see current wind gust speed)